createdAt,value
2018-12-17T00:00:13.695Z,97.80
2018-12-17T00:02:23.635Z,97.90
2018-12-17T00:04:33.244Z,98.00
2018-12-17T00:06:40.232Z,98.10
2018-12-17T00:08:51.967Z,98.00
2018-12-17T00:14:42.917Z,98.10
2018-12-17T00:16:52.597Z,98.10
2018-12-17T00:19:01.296Z,97.90
2018-12-17T00:21:08.320Z,97.80
2018-12-17T00:23:26.490Z,97.70
2018-12-17T00:25:38.427Z,97.60
2018-12-17T00:27:50.039Z,97.60
2018-12-17T00:29:58.114Z,97.60
2018-12-17T00:32:11.993Z,97.70
2018-12-17T00:34:22.756Z,97.70
2018-12-17T00:36:33.980Z,97.80
2018-12-17T00:38:49.573Z,97.80
2018-12-17T00:41:03.564Z,98.00
2018-12-17T00:43:14.811Z,98.10
2018-12-17T00:45:26.097Z,98.10
2018-12-17T00:47:39.214Z,98.10
2018-12-17T00:49:52.727Z,98.50
2018-12-17T00:52:01.686Z,98.60
2018-12-17T00:54:09.355Z,98.60
2018-12-17T00:56:19.278Z,98.40
2018-12-17T00:58:29.414Z,98.30
2018-12-17T01:00:41.080Z,98.20
2018-12-17T01:02:55.020Z,98.10
2018-12-17T01:05:11.451Z,98.00
2018-12-17T01:07:25.850Z,98.00
2018-12-17T01:09:35.143Z,98.00
2018-12-17T01:11:42.134Z,98.00
2018-12-17T01:13:53.077Z,98.00
2018-12-17T01:16:06.124Z,98.10
2018-12-17T01:18:22.463Z,98.10
2018-12-17T01:20:35.587Z,98.20
2018-12-17T01:22:47.949Z,98.10
2018-12-17T01:27:23.127Z,98.20
2018-12-17T01:29:31.611Z,98.10
2018-12-17T01:31:39.963Z,98.20
2018-12-17T01:33:49.011Z,98.20
2018-12-17T01:35:59.313Z,98.20
2018-12-17T01:38:06.608Z,98.20
2018-12-17T01:40:20.279Z,98.30
2018-12-17T01:42:30.596Z,98.40
2018-12-17T01:44:38.867Z,98.50
2018-12-17T01:46:55.724Z,98.60
2018-12-17T01:49:11.794Z,98.60
2018-12-17T01:51:17.113Z,98.60
2018-12-17T01:53:36.467Z,98.60
2018-12-17T01:55:54.894Z,98.50
2018-12-17T01:58:11.558Z,98.60
2018-12-17T02:00:19.735Z,98.70
2018-12-17T02:02:32.522Z,98.90
2018-12-17T02:04:42.532Z,99.00
2018-12-17T02:06:52.648Z,99.00
2018-12-17T02:09:01.191Z,99.00
2018-12-17T02:11:12.731Z,99.00
2018-12-17T02:13:21.075Z,99.10
2018-12-17T02:15:31.851Z,99.10
2018-12-17T02:17:37.975Z,99.10
2018-12-17T02:19:44.778Z,99.10
2018-12-17T02:21:53.291Z,99.00
2018-12-17T02:24:08.542Z,98.90
2018-12-17T02:26:18.369Z,98.90
2018-12-17T02:28:25.442Z,98.80
2018-12-17T02:30:38.455Z,98.80
2018-12-17T02:32:47.720Z,98.90
2018-12-17T02:34:58.675Z,98.90
2018-12-17T02:37:12.028Z,98.90
2018-12-17T02:39:19.409Z,98.80
2018-12-17T02:41:31.114Z,98.70
2018-12-17T02:43:39.571Z,98.70
2018-12-17T02:45:46.024Z,98.60
2018-12-17T02:47:52.753Z,98.50
2018-12-17T02:50:04.799Z,98.60
2018-12-17T02:52:11.657Z,98.60
2018-12-17T02:54:23.129Z,98.50
2018-12-17T02:56:37.375Z,98.50
2018-12-17T02:58:48.192Z,98.40
2018-12-17T03:00:59.027Z,98.60
2018-12-17T03:03:09.609Z,98.80
2018-12-17T03:05:21.422Z,99.10
2018-12-17T03:07:31.222Z,99.30
2018-12-17T03:09:39.959Z,99.50
2018-12-17T03:14:07.626Z,99.70
2018-12-17T03:16:23.148Z,99.90
2018-12-17T03:18:35.958Z,99.90
2018-12-17T03:20:44.866Z,99.90
2018-12-17T03:22:56.448Z,99.90
2018-12-17T03:25:06.745Z,99.90
2018-12-17T03:27:15.582Z,99.90
2018-12-17T03:29:30.210Z,99.90
2018-12-17T03:31:35.632Z,99.70
2018-12-17T03:33:48.046Z,99.60
2018-12-17T03:36:01.826Z,99.60
2018-12-17T03:38:08.834Z,99.40
2018-12-17T03:40:14.740Z,99.20
2018-12-17T03:42:22.243Z,99.30
2018-12-17T03:44:30.979Z,99.40
2018-12-17T03:46:40.187Z,99.30
2018-12-17T03:48:49.214Z,99.20
2018-12-17T03:51:01.753Z,99.30
2018-12-17T03:53:08.879Z,99.40
2018-12-17T03:55:20.500Z,99.40
2018-12-17T03:57:25.689Z,99.30
2018-12-17T03:59:36.978Z,99.30
2018-12-17T04:01:48.929Z,99.40
2018-12-17T04:04:01.923Z,99.20
2018-12-17T04:06:09.097Z,99.10
2018-12-17T04:08:18.523Z,99.00
2018-12-17T04:10:25.850Z,99.10
2018-12-17T04:12:37.997Z,99.10
2018-12-17T04:14:47.428Z,99.20
2018-12-17T04:16:59.260Z,99.10
2018-12-17T04:19:07.935Z,99.10
2018-12-17T04:21:16.404Z,99.10
2018-12-17T04:23:25.043Z,99.00
2018-12-17T04:25:33.729Z,99.40
2018-12-17T04:27:44.466Z,99.80
2018-12-17T04:29:54.291Z,99.90
2018-12-17T04:32:06.976Z,99.90
2018-12-17T04:34:17.932Z,99.90
2018-12-17T04:36:27.385Z,99.90
2018-12-17T04:38:34.242Z,99.90
2018-12-17T04:40:44.211Z,99.90
2018-12-17T04:42:50.185Z,99.90
2018-12-17T04:45:00.114Z,99.90
2018-12-17T04:47:11.180Z,99.90
2018-12-17T04:49:23.517Z,99.90
2018-12-17T04:51:35.676Z,99.90
2018-12-17T04:53:41.574Z,99.90
2018-12-17T04:55:49.367Z,99.90
2018-12-17T04:57:56.523Z,99.90
2018-12-17T05:00:06.963Z,99.90
2018-12-17T05:02:18.646Z,99.90
2018-12-17T05:04:33.314Z,99.90
2018-12-17T05:06:40.265Z,99.90
2018-12-17T05:08:47.176Z,99.90
2018-12-17T05:10:58.046Z,99.90
2018-12-17T05:13:07.150Z,99.90
2018-12-17T05:15:17.058Z,99.90
2018-12-17T05:17:27.387Z,99.90
2018-12-17T05:19:36.918Z,99.90
2018-12-17T05:21:48.290Z,99.90
2018-12-17T05:24:00.402Z,99.90
2018-12-17T05:26:11.870Z,99.70
2018-12-17T05:28:17.936Z,99.50
2018-12-17T05:30:28.406Z,99.20
2018-12-17T05:32:37.951Z,99.00
2018-12-17T05:34:46.580Z,98.90
2018-12-17T05:36:55.860Z,98.80
2018-12-17T05:39:05.562Z,98.90
2018-12-17T05:41:15.126Z,98.80
2018-12-17T05:43:21.709Z,98.80
2018-12-17T05:45:34.560Z,98.90
2018-12-17T05:47:45.914Z,99.00
2018-12-17T05:49:51.901Z,99.00
2018-12-17T05:51:59.057Z,98.90
2018-12-17T05:54:08.771Z,98.80
2018-12-17T05:56:18.744Z,98.90
2018-12-17T05:58:28.050Z,98.80
2018-12-17T06:00:42.891Z,98.60
2018-12-17T06:03:00.042Z,98.50
2018-12-17T06:05:13.814Z,98.40
2018-12-17T06:07:26.532Z,98.50
2018-12-17T06:09:37.510Z,98.70
2018-12-17T06:11:45.612Z,98.70
2018-12-17T06:13:56.066Z,98.70
2018-12-17T06:16:04.968Z,98.90
2018-12-17T06:18:15.938Z,99.00
2018-12-17T06:20:24.180Z,99.00
2018-12-17T06:22:33.827Z,99.10
2018-12-17T06:24:41.855Z,99.10
2018-12-17T06:26:52.625Z,99.60
2018-12-17T06:29:04.709Z,99.20
2018-12-17T06:31:17.912Z,99.10
2018-12-17T06:33:28.302Z,99.20
2018-12-17T06:35:37.296Z,99.40
2018-12-17T06:37:47.184Z,99.60
2018-12-17T06:39:54.958Z,99.50
2018-12-17T06:42:05.931Z,99.60
2018-12-17T06:44:16.709Z,99.80
2018-12-17T06:46:33.210Z,99.90
2018-12-17T06:48:41.844Z,99.90
2018-12-17T06:50:52.231Z,99.90
2018-12-17T06:53:00.264Z,99.90
2018-12-17T06:55:09.210Z,99.90
2018-12-17T06:57:16.780Z,99.90
2018-12-17T06:59:26.310Z,99.90
2018-12-17T07:01:38.595Z,99.90
2018-12-17T07:03:49.227Z,99.90
2018-12-17T07:05:59.721Z,99.90
2018-12-17T07:08:09.549Z,99.90
2018-12-17T07:10:18.359Z,99.90
2018-12-17T07:12:26.120Z,99.90
2018-12-17T07:14:36.541Z,99.90
2018-12-17T07:16:45.159Z,99.90
2018-12-17T07:18:59.917Z,99.90
2018-12-17T07:21:12.602Z,99.90
2018-12-17T07:23:27.803Z,99.90
2018-12-17T07:29:16.321Z,99.90
2018-12-17T07:31:27.156Z,99.90
2018-12-17T07:33:37.394Z,99.90
2018-12-17T07:35:44.942Z,99.90
2018-12-17T07:37:56.512Z,99.90
2018-12-17T07:40:04.329Z,99.90
2018-12-17T07:42:18.001Z,99.90
2018-12-17T07:44:27.725Z,99.90
2018-12-17T07:46:37.663Z,99.90
2018-12-17T07:48:45.243Z,99.90
2018-12-17T07:50:53.433Z,99.90
2018-12-17T07:53:04.520Z,99.90
2018-12-17T07:57:26.609Z,99.90
2018-12-17T07:59:35.494Z,99.90
2018-12-17T08:01:48.868Z,99.90
2018-12-17T08:03:58.383Z,99.90
2018-12-17T08:06:05.534Z,99.90
2018-12-17T08:08:16.786Z,99.90
2018-12-17T08:10:26.355Z,99.90
2018-12-17T08:12:33.073Z,99.90
2018-12-17T08:14:41.063Z,99.90
2018-12-17T08:16:52.596Z,99.90
2018-12-17T08:19:24.933Z,99.90
2018-12-17T08:21:33.970Z,99.90
2018-12-17T08:23:43.239Z,99.90
2018-12-17T08:25:54.525Z,99.90
2018-12-17T08:28:23.287Z,99.90
2018-12-17T08:30:34.812Z,99.90
2018-12-17T08:32:46.243Z,99.90
2018-12-17T08:34:59.145Z,99.90
2018-12-17T08:37:11.939Z,99.90
2018-12-17T08:39:22.813Z,99.90
2018-12-17T08:41:34.242Z,99.90
2018-12-17T08:43:47.336Z,99.90
2018-12-17T08:45:57.469Z,99.90
2018-12-17T08:48:04.958Z,99.90
2018-12-17T08:50:17.097Z,99.90
2018-12-17T08:52:29.093Z,99.90
2018-12-17T08:54:37.315Z,99.90
2018-12-17T08:56:53.168Z,99.90
2018-12-17T08:59:06.462Z,99.90
2018-12-17T09:01:17.844Z,99.90
2018-12-17T09:03:29.923Z,99.90
2018-12-17T09:05:38.171Z,99.90
2018-12-17T09:07:47.111Z,99.90
2018-12-17T09:09:56.897Z,99.90
2018-12-17T09:12:03.178Z,99.90
2018-12-17T09:14:11.035Z,99.90
2018-12-17T09:16:18.619Z,99.90
2018-12-17T09:18:29.509Z,99.90
2018-12-17T09:20:37.837Z,99.90
2018-12-17T09:22:48.401Z,99.90
2018-12-17T09:25:01.519Z,99.90
2018-12-17T09:27:07.648Z,99.90
2018-12-17T09:29:27.640Z,99.90
2018-12-17T09:31:37.436Z,99.90
2018-12-17T09:33:51.139Z,99.90
2018-12-17T09:36:07.080Z,99.90
2018-12-17T09:38:22.517Z,99.90
2018-12-17T09:40:27.253Z,99.90
2018-12-17T09:42:34.709Z,99.90
2018-12-17T09:44:43.281Z,99.90
2018-12-17T09:46:52.952Z,99.90
2018-12-17T09:49:05.146Z,99.90
2018-12-17T09:51:19.568Z,99.90
2018-12-17T09:53:25.147Z,99.90
2018-12-17T09:55:36.438Z,99.90
2018-12-17T09:57:52.549Z,99.90
2018-12-17T09:59:59.161Z,99.90
2018-12-17T10:02:16.076Z,99.90
2018-12-17T10:04:26.627Z,99.90
2018-12-17T10:06:36.707Z,99.90
2018-12-17T10:08:48.618Z,99.90
2018-12-17T10:10:57.918Z,99.90
2018-12-17T10:13:07.654Z,99.90
2018-12-17T10:15:22.555Z,99.90
2018-12-17T10:17:32.416Z,99.90
2018-12-17T10:19:42.291Z,99.90
2018-12-17T10:21:51.734Z,99.90
2018-12-17T10:24:02.161Z,99.90
2018-12-17T10:26:10.134Z,99.90
2018-12-17T10:28:17.398Z,99.90
2018-12-17T10:30:34.431Z,99.90
2018-12-17T10:32:45.149Z,99.90
2018-12-17T10:34:57.565Z,99.90
2018-12-17T10:37:10.347Z,99.90
2018-12-17T10:39:19.723Z,99.90
2018-12-17T10:41:36.482Z,99.90
2018-12-17T10:43:48.807Z,99.90
2018-12-17T10:46:03.206Z,99.90
2018-12-17T10:48:29.734Z,99.90
2018-12-17T10:50:42.298Z,99.90
2018-12-17T10:55:49.140Z,99.90
2018-12-17T10:58:02.248Z,99.90
2018-12-17T11:02:28.232Z,99.90
2018-12-17T11:04:41.521Z,99.90
2018-12-17T11:06:50.655Z,99.90
2018-12-17T11:09:00.288Z,99.90
2018-12-17T11:11:14.597Z,99.90
2018-12-17T11:15:44.751Z,99.90
2018-12-17T11:17:52.281Z,99.90
2018-12-17T11:20:05.886Z,99.90
2018-12-17T11:22:13.694Z,99.90
2018-12-17T11:24:30.017Z,99.90
2018-12-17T11:26:44.772Z,99.90
2018-12-17T11:29:04.574Z,99.90
2018-12-17T11:31:13.310Z,99.90
2018-12-17T11:33:25.301Z,99.90
2018-12-17T11:35:38.022Z,99.90
2018-12-17T11:37:47.846Z,99.90
2018-12-17T11:40:01.375Z,99.90
2018-12-17T11:42:09.351Z,99.90
2018-12-17T11:44:17.501Z,99.90
2018-12-17T11:48:42.398Z,99.90
2018-12-17T11:50:51.910Z,99.90
2018-12-17T11:53:03.738Z,99.90
2018-12-17T11:55:15.302Z,99.90
2018-12-17T11:58:04.457Z,99.90
2018-12-17T12:00:16.697Z,99.90
2018-12-17T12:02:26.612Z,99.90
2018-12-17T12:04:48.125Z,99.90
2018-12-17T12:07:04.717Z,99.90
2018-12-17T12:09:19.133Z,99.90
2018-12-17T12:11:34.628Z,99.90
2018-12-17T12:13:42.792Z,99.90
2018-12-17T12:16:01.825Z,99.90
2018-12-17T12:18:12.206Z,99.90
2018-12-17T12:20:19.795Z,99.90
2018-12-17T12:22:35.746Z,99.90
2018-12-17T12:24:55.298Z,99.90
2018-12-17T12:27:07.106Z,99.90
2018-12-17T12:29:18.628Z,99.90
2018-12-17T12:31:29.233Z,99.90
2018-12-17T12:33:40.933Z,99.90
2018-12-17T12:35:53.204Z,99.90
2018-12-17T12:38:01.422Z,99.90
2018-12-17T12:40:13.109Z,99.90
2018-12-17T12:42:23.557Z,99.90
2018-12-17T12:44:31.017Z,99.90
2018-12-17T12:46:41.869Z,99.90
2018-12-17T12:48:50.283Z,99.90
2018-12-17T12:51:02.045Z,99.90
2018-12-17T12:57:55.909Z,99.90
2018-12-17T13:00:07.790Z,99.90
2018-12-17T13:02:21.484Z,99.90
2018-12-17T13:04:27.923Z,99.90
2018-12-17T13:06:38.992Z,99.90
2018-12-17T13:08:49.519Z,99.90
2018-12-17T13:10:59.101Z,99.90
2018-12-17T13:13:39.002Z,99.90
2018-12-17T13:15:45.680Z,99.90
2018-12-17T13:17:53.601Z,99.90
2018-12-17T13:20:05.637Z,99.90
2018-12-17T13:22:19.154Z,99.90
2018-12-17T13:24:39.466Z,99.90
2018-12-17T13:26:52.485Z,99.90
2018-12-17T13:29:15.779Z,99.90
2018-12-17T13:31:23.672Z,99.90
2018-12-17T13:33:37.205Z,99.90
2018-12-17T13:35:57.807Z,99.90
2018-12-17T13:38:07.547Z,99.90
2018-12-17T13:42:35.464Z,99.90
2018-12-17T13:44:51.025Z,99.90
2018-12-17T13:47:02.644Z,99.90
2018-12-17T13:49:12.857Z,99.90
2018-12-17T13:51:29.929Z,99.90
2018-12-17T13:53:40.484Z,99.90
2018-12-17T13:55:57.654Z,99.90
2018-12-17T13:58:06.747Z,99.90
2018-12-17T14:02:38.662Z,99.90
2018-12-17T14:04:48.490Z,99.90
2018-12-17T14:07:03.853Z,99.90
2018-12-17T14:09:12.826Z,99.90
2018-12-17T14:11:22.574Z,99.90
2018-12-17T14:13:35.435Z,99.90
2018-12-17T14:15:59.103Z,99.90
2018-12-17T14:18:14.236Z,99.90
2018-12-17T14:20:26.362Z,99.90
2018-12-17T14:22:44.840Z,99.90
2018-12-17T14:24:55.146Z,99.90
2018-12-17T14:27:12.076Z,99.90
2018-12-17T14:29:25.813Z,99.90
2018-12-17T14:31:54.620Z,99.90
2018-12-17T14:34:21.153Z,99.90
2018-12-17T14:36:30.413Z,99.90
2018-12-17T14:38:44.649Z,99.90
2018-12-17T14:41:08.629Z,99.90
2018-12-17T14:43:23.252Z,99.90
2018-12-17T14:45:35.008Z,99.90
2018-12-17T14:47:46.145Z,99.90
2018-12-17T14:49:57.595Z,99.90
2018-12-17T14:52:11.510Z,99.90
2018-12-17T14:54:19.315Z,99.90
2018-12-17T14:58:44.641Z,99.90
2018-12-17T15:00:59.717Z,99.90
2018-12-17T15:03:09.595Z,99.90
2018-12-17T15:05:27.343Z,99.90
2018-12-17T15:07:45.708Z,99.90
2018-12-17T15:10:01.361Z,99.90
2018-12-17T15:12:12.293Z,99.90
2018-12-17T15:14:21.120Z,99.90
2018-12-17T15:16:31.220Z,99.90
2018-12-17T15:18:43.376Z,99.90
2018-12-17T15:20:52.344Z,99.90
2018-12-17T15:23:06.801Z,99.90
2018-12-17T15:25:24.147Z,99.90
2018-12-17T15:27:38.184Z,99.90
2018-12-17T15:29:53.439Z,99.90
2018-12-17T15:32:11.456Z,99.90
2018-12-17T15:34:24.506Z,99.90
2018-12-17T15:36:36.277Z,99.90
2018-12-17T15:38:49.595Z,99.90
2018-12-17T15:41:03.041Z,99.90
2018-12-17T15:43:10.258Z,99.90
2018-12-17T15:45:26.582Z,99.90
2018-12-17T15:47:39.552Z,99.90
2018-12-17T15:49:49.435Z,99.90
2018-12-17T15:52:13.819Z,99.90
2018-12-17T15:54:27.813Z,99.90
2018-12-17T15:56:43.982Z,99.90
2018-12-17T15:58:53.688Z,99.90
2018-12-17T16:01:12.079Z,99.90
2018-12-17T16:03:23.513Z,99.90
2018-12-17T16:05:37.366Z,99.90
2018-12-17T16:07:48.809Z,99.90
2018-12-17T16:09:59.484Z,99.90
2018-12-17T16:12:14.475Z,99.90
2018-12-17T16:14:23.545Z,99.90
2018-12-17T16:16:28.485Z,99.90
2018-12-17T16:18:42.054Z,99.90
2018-12-17T16:20:56.627Z,99.90
2018-12-17T16:23:09.687Z,99.90
2018-12-17T16:27:38.669Z,99.90
2018-12-17T16:29:50.295Z,99.90
2018-12-17T16:32:03.124Z,99.90
2018-12-17T16:34:17.163Z,99.90
2018-12-17T16:36:30.510Z,99.90
2018-12-17T16:38:37.702Z,99.90
2018-12-17T16:40:51.827Z,99.90
2018-12-17T16:43:00.603Z,99.90
2018-12-17T16:45:17.088Z,99.90
2018-12-17T16:47:38.608Z,99.90
2018-12-17T16:49:53.229Z,99.90
2018-12-17T16:52:03.970Z,99.90
2018-12-17T16:54:17.955Z,99.90
2018-12-17T16:56:26.359Z,99.90
2018-12-17T16:58:37.789Z,99.90
2018-12-17T17:00:47.222Z,99.90
2018-12-17T17:03:04.284Z,99.90
2018-12-17T17:05:19.753Z,99.90
2018-12-17T17:07:36.252Z,99.90
2018-12-17T17:09:49.887Z,99.90
2018-12-17T17:12:00.346Z,99.90
2018-12-17T17:14:16.522Z,99.90
2018-12-17T17:16:30.243Z,99.90
2018-12-17T17:18:50.141Z,99.90
2018-12-17T17:20:57.505Z,99.90
2018-12-17T17:23:07.553Z,99.90
2018-12-17T17:25:19.220Z,99.90
2018-12-17T17:27:30.246Z,99.90
2018-12-17T17:29:41.722Z,99.90
2018-12-17T17:31:59.015Z,99.90
2018-12-17T17:34:07.221Z,99.90
2018-12-17T17:36:15.415Z,99.90
2018-12-17T17:38:28.049Z,99.90
2018-12-17T17:40:46.244Z,99.90
2018-12-17T17:42:54.726Z,99.90
2018-12-17T17:45:05.998Z,99.90
2018-12-17T17:47:23.277Z,99.90
2018-12-17T17:49:36.954Z,99.90
2018-12-17T17:51:46.931Z,99.90
2018-12-17T17:54:00.497Z,99.90
2018-12-17T17:56:09.548Z,99.90
2018-12-17T17:58:24.797Z,99.90
2018-12-17T18:00:37.382Z,99.90
2018-12-17T18:02:51.749Z,99.90
2018-12-17T18:05:08.304Z,99.90
2018-12-17T18:07:19.070Z,99.90
2018-12-17T18:09:26.763Z,99.90
2018-12-17T18:11:35.461Z,99.70
2018-12-17T18:13:52.144Z,99.60
2018-12-17T18:16:01.023Z,99.50
2018-12-17T18:18:10.031Z,99.60
2018-12-17T18:20:21.026Z,99.50
2018-12-17T18:22:30.257Z,99.60
2018-12-17T18:24:42.620Z,99.60
2018-12-17T18:26:57.720Z,99.40
2018-12-17T18:29:14.130Z,99.30
2018-12-17T18:31:30.751Z,99.80
2018-12-17T18:33:46.451Z,99.60
2018-12-17T18:35:57.554Z,99.40
2018-12-17T18:38:06.303Z,99.40
2018-12-17T18:40:19.156Z,99.40
2018-12-17T18:42:32.039Z,99.30
2018-12-17T18:44:42.681Z,99.10
2018-12-17T18:46:51.097Z,99.30
2018-12-17T18:49:04.491Z,98.80
2018-12-17T18:51:21.989Z,98.70
2018-12-17T18:53:34.864Z,98.70
2018-12-17T18:55:50.443Z,98.80
2018-12-17T18:58:06.293Z,98.80
2018-12-17T19:00:19.268Z,99.00
2018-12-17T19:02:32.994Z,99.10
2018-12-17T19:04:38.593Z,99.40
2018-12-17T19:06:46.456Z,99.40
2018-12-17T19:11:09.348Z,99.40
2018-12-17T19:13:18.007Z,99.50
2018-12-17T19:15:28.654Z,99.50
2018-12-17T19:17:39.907Z,99.50
2018-12-17T19:19:49.774Z,99.40
2018-12-17T19:21:59.982Z,99.30
2018-12-17T19:24:09.451Z,99.30
2018-12-17T19:26:23.823Z,99.20
2018-12-17T19:28:30.961Z,99.30
2018-12-17T19:30:40.033Z,99.40
2018-12-17T19:32:51.262Z,99.50
2018-12-17T19:34:58.982Z,99.60
2018-12-17T19:37:08.523Z,99.70
2018-12-17T19:39:20.597Z,99.60
2018-12-17T19:41:30.939Z,99.60
2018-12-17T19:43:39.577Z,99.50
2018-12-17T19:45:50.428Z,99.50
2018-12-17T19:47:57.049Z,99.50
2018-12-17T19:50:05.649Z,99.60
2018-12-17T19:52:15.813Z,99.60
2018-12-17T19:54:23.825Z,99.50
2018-12-17T19:56:34.703Z,99.50
2018-12-17T19:58:45.146Z,99.50
2018-12-17T20:01:04.347Z,99.60
2018-12-17T20:03:14.406Z,99.50
2018-12-17T20:05:28.935Z,99.50
2018-12-17T20:07:43.258Z,99.60
2018-12-17T20:10:02.217Z,99.80
2018-12-17T20:12:11.474Z,99.80
2018-12-17T20:14:21.499Z,99.70
2018-12-17T20:16:32.596Z,99.70
2018-12-17T20:18:43.175Z,99.80
2018-12-17T20:20:51.709Z,99.70
2018-12-17T20:23:04.751Z,99.50
2018-12-17T20:25:14.103Z,99.50
2018-12-17T20:27:25.031Z,99.50
2018-12-17T20:29:39.074Z,99.50
2018-12-17T20:31:50.732Z,99.50
2018-12-17T20:34:05.302Z,99.60
2018-12-17T20:36:23.832Z,99.60
2018-12-17T20:38:33.392Z,99.70
2018-12-17T20:40:49.080Z,99.80
2018-12-17T20:42:57.552Z,99.80
2018-12-17T20:45:07.189Z,99.80
2018-12-17T20:47:18.113Z,99.90
2018-12-17T20:49:29.150Z,99.90
2018-12-17T20:53:58.491Z,99.90
2018-12-17T20:56:06.085Z,99.90
2018-12-17T20:58:19.273Z,99.90
2018-12-17T21:00:38.028Z,99.90
2018-12-17T21:02:48.124Z,99.90
2018-12-17T21:05:04.242Z,99.90
2018-12-17T21:07:19.732Z,99.90
2018-12-17T21:09:28.493Z,99.90
2018-12-17T21:11:44.457Z,99.90
2018-12-17T21:16:16.983Z,99.90
2018-12-17T21:18:28.657Z,99.90
2018-12-17T21:20:37.231Z,99.90
2018-12-17T21:22:45.463Z,99.90
2018-12-17T21:24:52.745Z,99.90
2018-12-17T21:27:00.567Z,99.90
2018-12-17T21:29:11.429Z,99.90
2018-12-17T21:31:20.959Z,99.90
2018-12-17T21:33:29.471Z,99.90
2018-12-17T21:35:39.182Z,99.90
2018-12-17T21:37:49.831Z,99.90
2018-12-17T21:39:59.564Z,99.90
2018-12-17T21:42:08.422Z,99.90
2018-12-17T21:44:20.278Z,99.90
2018-12-17T21:46:27.506Z,99.90
2018-12-17T21:48:38.778Z,99.90
2018-12-17T21:53:09.372Z,99.90
2018-12-17T21:55:26.518Z,99.90
2018-12-17T21:57:40.115Z,99.90
2018-12-17T22:00:17.776Z,99.90
2018-12-17T22:02:29.185Z,99.90
2018-12-17T22:04:45.274Z,99.90
2018-12-17T22:06:58.171Z,99.90
2018-12-17T22:09:13.900Z,99.90
2018-12-17T22:11:26.364Z,99.90
2018-12-17T22:13:41.492Z,99.90
2018-12-17T22:15:55.472Z,99.90
2018-12-17T22:18:03.532Z,99.90
2018-12-17T22:20:12.470Z,99.90
2018-12-17T22:22:25.514Z,99.90
2018-12-17T22:24:39.993Z,99.90
2018-12-17T22:26:50.026Z,99.90
2018-12-17T22:28:59.221Z,99.90
2018-12-17T22:31:09.190Z,99.90
2018-12-17T22:33:23.024Z,99.90
2018-12-17T22:35:30.269Z,99.90
2018-12-17T22:37:37.498Z,99.90
2018-12-17T22:39:48.552Z,99.90
2018-12-17T22:42:00.368Z,99.90
2018-12-17T22:44:08.034Z,99.90
2018-12-17T22:46:19.595Z,99.90
2018-12-17T22:48:26.907Z,99.90
2018-12-17T22:50:35.353Z,99.90
2018-12-17T22:52:43.475Z,99.90
2018-12-17T22:54:51.367Z,99.90
2018-12-17T22:57:06.475Z,99.90
2018-12-17T22:59:16.349Z,99.90
2018-12-17T23:01:24.889Z,99.90
2018-12-17T23:03:35.682Z,99.90
2018-12-17T23:05:45.678Z,99.90
2018-12-17T23:07:56.666Z,99.90
2018-12-17T23:10:13.065Z,99.90
2018-12-17T23:12:29.793Z,99.90
2018-12-17T23:14:46.179Z,99.90
2018-12-17T23:17:04.063Z,99.90
2018-12-17T23:19:10.305Z,99.90
2018-12-17T23:21:17.305Z,99.90
2018-12-17T23:23:29.684Z,99.90
2018-12-17T23:27:56.635Z,99.90
2018-12-17T23:30:08.870Z,99.90
2018-12-17T23:32:15.484Z,99.90
2018-12-17T23:34:23.056Z,99.90
2018-12-17T23:36:30.311Z,99.90
2018-12-17T23:38:46.159Z,99.90
2018-12-17T23:41:00.239Z,99.90
2018-12-17T23:43:08.033Z,99.90
2018-12-17T23:45:16.242Z,99.90
2018-12-17T23:47:25.971Z,99.90
2018-12-17T23:49:38.318Z,99.90
2018-12-17T23:51:48.007Z,99.90
2018-12-17T23:53:59.639Z,99.90
2018-12-17T23:56:07.682Z,99.90
2018-12-17T23:58:17.008Z,99.90
